< < Back
Terminal Aerodrome Forecast


Current Version              Previous Versions:   1  2  3  4  5  6  7  8  9  

Terminal Aerodrome Forecast

127
FTUS42 KILM 041003 AAA
TAFILM
TAF AMD
KILM 041003Z 0410/0506 25003KT 5SM -SHRA BKN025
     FM041300 26009G17KT P6SM BKN050
     FM042100 24011G18KT P6SM SCT050 PROB30 0421/0424 4SM SHRA
      BKN050
     FM050300 26003KT 4SM BR SKC=

Latest METAR

103
SAUS70 KWBC 042300 RRI
MTRILM
METAR KILM 042253Z AUTO 30009KT 10SM CLR 25/12 A2957 RMK AO2 SLP014
T02500122


USA.gov is the U.S. government's official web portal to all federal, state and local government web resources and services.